EWG11A LFPG-EDDH
Flight info
| Callsign | EWG11A |
|---|---|
| Flight time | N/A |
| Altitude | 36000 |
| Route | NURMO DCT CMB DCT VEKIN DCT ADUTO N873 HELEN/N0447F380 N873 VICOT/N0450F370 DCT PABCO M105 RIBSO RIBSO7A |
| Aircraft | A320/M-SDE3FGHIRWY/LB1 |
Departure
| Time | 2026-05-09 00:35 |
|---|---|
| Airport | Charles de Gaulle International Airport (LFPG) |
Arrival
| Time | N/A |
|---|---|
| Airport | Hamburg Helmut Schmidt Airport (EDDH) |
| Time | Latitude | Longitude | Altitude | Speed | Heading |
|---|---|---|---|---|---|
| 2026-05-08 23:53 | 49.00531 | 2.56251 | 357 ft | 0 kts | 195° |
| 2026-05-09 00:14 | 49.00542 | 2.56256 | 363 ft | 4 kts | 198° |
| 2026-05-09 00:15 | 49.00567 | 2.56270 | 359 ft | 4 kts | 209° |
| 2026-05-09 00:15 | 49.00588 | 2.56294 | 364 ft | 4 kts | 226° |
| 2026-05-09 00:15 | 49.00603 | 2.56326 | 359 ft | 4 kts | 255° |
| 2026-05-09 00:15 | 49.00605 | 2.56341 | 360 ft | 0 kts | 265° |
| 2026-05-09 00:19 | 49.00603 | 2.56312 | 358 ft | 6 kts | 264° |
| 2026-05-09 00:19 | 49.00596 | 2.56217 | 354 ft | 13 kts | 264° |
| 2026-05-09 00:19 | 49.00585 | 2.56077 | 357 ft | 13 kts | 259° |
| 2026-05-09 00:20 | 49.00566 | 2.55958 | 361 ft | 11 kts | 268° |
| 2026-05-09 00:20 | 49.00567 | 2.55818 | 360 ft | 18 kts | 265° |
| 2026-05-09 00:20 | 49.00531 | 2.56251 | 355 ft | 0 kts | 195° |
| 2026-05-09 00:22 | 49.00527 | 2.56250 | 355 ft | 0 kts | 195° |
| 2026-05-09 00:22 | 49.00540 | 2.56255 | 359 ft | 2 kts | 195° |
| 2026-05-09 00:22 | 49.00553 | 2.56260 | 364 ft | 2 kts | 195° |
| 2026-05-09 00:22 | 49.00566 | 2.56265 | 359 ft | 2 kts | 195° |
| 2026-05-09 00:23 | 49.00579 | 2.56271 | 364 ft | 2 kts | 195° |
| 2026-05-09 00:23 | 49.00592 | 2.56276 | 364 ft | 2 kts | 195° |
| 2026-05-09 00:23 | 49.00605 | 2.56281 | 362 ft | 2 kts | 197° |
| 2026-05-09 00:23 | 49.00609 | 2.56277 | 361 ft | 4 kts | 230° |
| 2026-05-09 00:24 | 49.00598 | 2.56187 | 355 ft | 14 kts | 261° |
| 2026-05-09 00:24 | 49.00576 | 2.56010 | 361 ft | 19 kts | 256° |
| 2026-05-09 00:24 | 49.00568 | 2.55850 | 360 ft | 8 kts | 267° |
| 2026-05-09 00:24 | 49.00563 | 2.55746 | 364 ft | 4 kts | 265° |
| 2026-05-09 00:25 | 49.00559 | 2.55675 | 355 ft | 12 kts | 265° |
| 2026-05-09 00:25 | 49.00560 | 2.55584 | 357 ft | 10 kts | 247° |
| 2026-05-09 00:25 | 49.00561 | 2.55436 | 360 ft | 17 kts | 313° |
| 2026-05-09 00:25 | 49.00662 | 2.55378 | 358 ft | 19 kts | 344° |
| 2026-05-09 00:26 | 49.00814 | 2.55312 | 357 ft | 23 kts | 343° |
| 2026-05-09 00:26 | 49.00960 | 2.55248 | 358 ft | 26 kts | 343° |
| 2026-05-09 00:26 | 49.01134 | 2.55172 | 355 ft | 29 kts | 344° |
| 2026-05-09 00:26 | 49.01323 | 2.55090 | 355 ft | 30 kts | 344° |
| 2026-05-09 00:27 | 49.01532 | 2.55029 | 355 ft | 26 kts | 356° |
| 2026-05-09 00:27 | 49.01674 | 2.55012 | 355 ft | 13 kts | 355° |
| 2026-05-09 00:27 | 49.01719 | 2.55007 | 355 ft | 0 kts | 355° |
| 2026-05-09 00:28 | 49.01735 | 2.55005 | 354 ft | 7 kts | 355° |
| 2026-05-09 00:28 | 49.01785 | 2.54999 | 356 ft | 9 kts | 355° |
| 2026-05-09 00:28 | 49.01851 | 2.54951 | 359 ft | 11 kts | 294° |
| 2026-05-09 00:29 | 49.01848 | 2.54844 | 354 ft | 9 kts | 264° |
| 2026-05-09 00:29 | 49.01842 | 2.54751 | 357 ft | 9 kts | 265° |
| 2026-05-09 00:29 | 49.01835 | 2.54631 | 354 ft | 14 kts | 265° |
| 2026-05-09 00:29 | 49.01828 | 2.54461 | 359 ft | 18 kts | 265° |
| 2026-05-09 00:30 | 49.01817 | 2.54247 | 354 ft | 22 kts | 265° |
| 2026-05-09 00:30 | 49.01804 | 2.54028 | 354 ft | 21 kts | 265° |
| 2026-05-09 00:30 | 49.01791 | 2.53788 | 357 ft | 25 kts | 265° |
| 2026-05-09 00:30 | 49.01777 | 2.53507 | 360 ft | 28 kts | 265° |
| 2026-05-09 00:31 | 49.01764 | 2.53305 | 356 ft | 17 kts | 264° |
| 2026-05-09 00:31 | 49.01756 | 2.53154 | 362 ft | 16 kts | 265° |
| 2026-05-09 00:31 | 49.01747 | 2.52968 | 356 ft | 20 kts | 267° |
| 2026-05-09 00:31 | 49.01735 | 2.52739 | 358 ft | 24 kts | 265° |
| 2026-05-09 00:32 | 49.01721 | 2.52470 | 356 ft | 27 kts | 266° |
| 2026-05-09 00:32 | 49.01705 | 2.52166 | 356 ft | 30 kts | 265° |
| 2026-05-09 00:32 | 49.01709 | 2.51951 | 363 ft | 18 kts | 310° |
| 2026-05-09 00:32 | 49.01828 | 2.51914 | 362 ft | 16 kts | 357° |
| 2026-05-09 00:33 | 49.01877 | 2.52045 | 358 ft | 17 kts | 82° |
| 2026-05-09 00:33 | 49.01915 | 2.52116 | 357 ft | 4 kts | 16° |
| 2026-05-09 00:33 | 49.01986 | 2.52111 | 354 ft | 13 kts | 356° |
| 2026-05-09 00:33 | 49.02011 | 2.52108 | 354 ft | 3 kts | 356° |
| 2026-05-09 00:34 | 49.02040 | 2.52106 | 354 ft | 9 kts | 359° |
| 2026-05-09 00:34 | 49.02107 | 2.52144 | 361 ft | 12 kts | 72° |
| 2026-05-09 00:34 | 49.02109 | 2.52170 | 354 ft | 0 kts | 82° |
| 2026-05-09 00:34 | 49.02117 | 2.52287 | 356 ft | 41 kts | 85° |
| 2026-05-09 00:35 | 49.02163 | 2.53107 | 363 ft | 111 kts | 85° |
| 2026-05-09 00:35 | 49.02240 | 2.54570 | 373 ft | 161 kts | 83° |
| 2026-05-09 00:35 | 49.02352 | 2.56233 | 1088 ft | 155 kts | 82° |
| 2026-05-09 00:35 | 49.02463 | 2.57854 | 1833 ft | 158 kts | 85° |
| 2026-05-09 00:36 | 49.02587 | 2.59616 | 2268 ft | 176 kts | 84° |
| 2026-05-09 00:36 | 49.02706 | 2.61585 | 2651 ft | 198 kts | 86° |
| 2026-05-09 00:36 | 49.02802 | 2.63810 | 3040 ft | 223 kts | 87° |
| 2026-05-09 00:36 | 49.02905 | 2.66299 | 3552 ft | 247 kts | 87° |
| 2026-05-09 00:37 | 49.03023 | 2.68945 | 4306 ft | 258 kts | 87° |
| 2026-05-09 00:37 | 49.03158 | 2.71711 | 5195 ft | 265 kts | 85° |
| 2026-05-09 00:37 | 49.03734 | 2.74403 | 6010 ft | 275 kts | 54° |
| 2026-05-09 00:37 | 49.05245 | 2.76250 | 6852 ft | 281 kts | 20° |
| 2026-05-09 00:38 | 49.07176 | 2.76709 | 7742 ft | 284 kts | 358° |
| 2026-05-09 00:38 | 49.09128 | 2.76471 | 8637 ft | 286 kts | 351° |
| 2026-05-09 00:38 | 49.11113 | 2.76054 | 9543 ft | 290 kts | 350° |
| 2026-05-09 00:38 | 49.13133 | 2.75682 | 10339 ft | 298 kts | 351° |
| 2026-05-09 00:39 | 49.15283 | 2.75405 | 10655 ft | 322 kts | 354° |
| 2026-05-09 00:39 | 49.17605 | 2.75239 | 10911 ft | 346 kts | 356° |
| 2026-05-09 00:39 | 49.20069 | 2.75171 | 11371 ft | 360 kts | 358° |
| 2026-05-09 00:39 | 49.22595 | 2.75173 | 12063 ft | 365 kts | 359° |
| 2026-05-09 00:40 | 49.25152 | 2.75209 | 12809 ft | 370 kts | 359° |
| 2026-05-09 00:40 | 49.27740 | 2.75254 | 13566 ft | 374 kts | 359° |
| 2026-05-09 00:40 | 49.30355 | 2.75298 | 14280 ft | 377 kts | 359° |
| 2026-05-09 00:41 | 49.35646 | 2.75350 | 15615 ft | 383 kts | 359° |
| 2026-05-09 00:41 | 49.38328 | 2.75360 | 16275 ft | 387 kts | 359° |
| 2026-05-09 00:41 | 49.41028 | 2.75366 | 16924 ft | 390 kts | 358° |
| 2026-05-09 00:41 | 49.43750 | 2.75370 | 17562 ft | 393 kts | 358° |
| 2026-05-09 00:42 | 49.46496 | 2.75377 | 18186 ft | 396 kts | 358° |
| 2026-05-09 00:42 | 49.49258 | 2.75387 | 18738 ft | 399 kts | 358° |
| 2026-05-09 00:42 | 49.52051 | 2.75395 | 19230 ft | 403 kts | 359° |
| 2026-05-09 00:42 | 49.54866 | 2.75403 | 19761 ft | 406 kts | 359° |
| 2026-05-09 00:43 | 49.57659 | 2.75414 | 20294 ft | 408 kts | 359° |
| 2026-05-09 00:43 | 49.60507 | 2.75428 | 20821 ft | 410 kts | 359° |
| 2026-05-09 00:43 | 49.63369 | 2.75447 | 21340 ft | 413 kts | 359° |
| 2026-05-09 00:43 | 49.66249 | 2.75464 | 21853 ft | 415 kts | 359° |
| 2026-05-09 00:44 | 49.69146 | 2.75477 | 22359 ft | 417 kts | 359° |
| 2026-05-09 00:44 | 49.72059 | 2.75489 | 22873 ft | 420 kts | 359° |
| 2026-05-09 00:44 | 49.74990 | 2.75505 | 23368 ft | 422 kts | 359° |
| 2026-05-09 00:44 | 49.77931 | 2.75527 | 23821 ft | 424 kts | 0° |
| 2026-05-09 00:45 | 49.80879 | 2.76009 | 24209 ft | 427 kts | 10° |
| 2026-05-09 00:45 | 49.83745 | 2.77271 | 24580 ft | 431 kts | 20° |
| 2026-05-09 00:45 | 49.86452 | 2.79284 | 24971 ft | 434 kts | 30° |
| 2026-05-09 00:45 | 49.89020 | 2.81780 | 25348 ft | 436 kts | 31° |
| 2026-05-09 00:46 | 49.91591 | 2.84302 | 25728 ft | 438 kts | 31° |
| 2026-05-09 00:46 | 49.94175 | 2.86835 | 26120 ft | 440 kts | 31° |
| 2026-05-09 00:46 | 49.96773 | 2.89381 | 26493 ft | 443 kts | 31° |
| 2026-05-09 00:46 | 49.99381 | 2.91940 | 26856 ft | 445 kts | 31° |
| 2026-05-09 00:47 | 50.02001 | 2.94520 | 27199 ft | 447 kts | 31° |
| 2026-05-09 00:47 | 50.04632 | 2.97115 | 27544 ft | 449 kts | 31° |
| 2026-05-09 00:47 | 50.07273 | 2.99722 | 27881 ft | 451 kts | 31° |
| 2026-05-09 00:47 | 50.09924 | 3.02343 | 28217 ft | 453 kts | 31° |
| 2026-05-09 00:48 | 50.12588 | 3.04981 | 28532 ft | 455 kts | 31° |
| 2026-05-09 00:48 | 50.15263 | 3.07635 | 28835 ft | 457 kts | 31° |
| 2026-05-09 00:48 | 50.17945 | 3.10302 | 29173 ft | 458 kts | 31° |
| 2026-05-09 00:48 | 50.20637 | 3.12986 | 29513 ft | 459 kts | 31° |
| 2026-05-09 00:49 | 50.23380 | 3.15523 | 29967 ft | 457 kts | 25° |
| 2026-05-09 00:49 | 50.26262 | 3.17583 | 30371 ft | 455 kts | 22° |
| 2026-05-09 00:49 | 50.29149 | 3.19596 | 30734 ft | 454 kts | 22° |
| 2026-05-09 00:49 | 50.32032 | 3.21608 | 31085 ft | 453 kts | 22° |
| 2026-05-09 00:50 | 50.34911 | 3.23624 | 31480 ft | 452 kts | 22° |
| 2026-05-09 00:50 | 50.37768 | 3.25631 | 31942 ft | 449 kts | 22° |
| 2026-05-09 00:50 | 50.40612 | 3.27634 | 32335 ft | 447 kts | 22° |
| 2026-05-09 00:50 | 50.43426 | 3.29696 | 32709 ft | 447 kts | 23° |
| 2026-05-09 00:51 | 50.46213 | 3.31845 | 33074 ft | 446 kts | 24° |
| 2026-05-09 00:51 | 50.48977 | 3.34046 | 33435 ft | 445 kts | 25° |
| 2026-05-09 00:51 | 50.51698 | 3.36239 | 33793 ft | 445 kts | 24° |
| 2026-05-09 00:51 | 50.54473 | 3.38361 | 34138 ft | 443 kts | 22° |
| 2026-05-09 00:52 | 50.57319 | 3.40382 | 34446 ft | 442 kts | 21° |
| 2026-05-09 00:52 | 50.60150 | 3.42294 | 34749 ft | 442 kts | 20° |
| 2026-05-09 00:52 | 50.62943 | 3.44143 | 35043 ft | 442 kts | 20° |
| 2026-05-09 00:52 | 50.65774 | 3.46022 | 35318 ft | 442 kts | 20° |
| 2026-05-09 00:53 | 50.68601 | 3.47925 | 35582 ft | 442 kts | 21° |
| 2026-05-09 00:53 | 50.71422 | 3.49855 | 35840 ft | 442 kts | 21° |
| 2026-05-09 00:53 | 50.74240 | 3.51807 | 36054 ft | 443 kts | 21° |
| 2026-05-09 00:53 | 50.77060 | 3.53776 | 36113 ft | 444 kts | 21° |
| 2026-05-09 00:54 | 50.82709 | 3.57726 | 36126 ft | 444 kts | 21° |
| 2026-05-09 00:54 | 50.88356 | 3.61669 | 36117 ft | 443 kts | 21° |
| 2026-05-09 00:55 | 50.94000 | 3.65617 | 36118 ft | 443 kts | 21° |
| 2026-05-09 00:55 | 50.99624 | 3.69650 | 36118 ft | 444 kts | 22° |
| 2026-05-09 00:56 | 51.05239 | 3.73726 | 36121 ft | 444 kts | 22° |
| 2026-05-09 00:56 | 51.09909 | 3.77106 | 36123 ft | 444 kts | 22° |
| 2026-05-09 00:57 | 51.15527 | 3.81166 | 36136 ft | 443 kts | 21° |
| 2026-05-09 00:57 | 51.21139 | 3.85228 | 36137 ft | 443 kts | 21° |
| 2026-05-09 00:58 | 51.26741 | 3.89305 | 36139 ft | 442 kts | 22° |
| 2026-05-09 00:58 | 51.32331 | 3.93401 | 36139 ft | 442 kts | 21° |
| 2026-05-09 00:59 | 51.37920 | 3.97504 | 36144 ft | 442 kts | 22° |
| 2026-05-09 00:59 | 51.43505 | 4.01617 | 36141 ft | 442 kts | 22° |
| 2026-05-09 01:00 | 51.48763 | 4.06620 | 36137 ft | 447 kts | 37° |
| 2026-05-09 01:00 | 51.53096 | 4.13840 | 36143 ft | 451 kts | 45° |
| 2026-05-09 01:01 | 51.57292 | 4.21335 | 36137 ft | 451 kts | 45° |
| 2026-05-09 01:01 | 51.61487 | 4.28839 | 36133 ft | 451 kts | 45° |
| 2026-05-09 01:02 | 51.65680 | 4.36373 | 36132 ft | 452 kts | 45° |
| 2026-05-09 01:02 | 51.69862 | 4.43928 | 36131 ft | 452 kts | 45° |
| 2026-05-09 01:03 | 51.74041 | 4.51491 | 36155 ft | 452 kts | 45° |
| 2026-05-09 01:03 | 51.78217 | 4.59074 | 36155 ft | 452 kts | 45° |
| 2026-05-09 01:04 | 51.82389 | 4.66670 | 36154 ft | 452 kts | 45° |
| 2026-05-09 01:04 | 51.86557 | 4.74285 | 36146 ft | 452 kts | 45° |
| 2026-05-09 01:05 | 51.90719 | 4.81920 | 36147 ft | 452 kts | 45° |
| 2026-05-09 01:06 | 51.96929 | 4.93331 | 36175 ft | 452 kts | 45° |
| 2026-05-09 01:06 | 52.01076 | 5.00980 | 36173 ft | 451 kts | 45° |
| 2026-05-09 01:07 | 52.05244 | 5.08695 | 36172 ft | 451 kts | 45° |
| 2026-05-09 01:07 | 52.09348 | 5.16320 | 36167 ft | 451 kts | 45° |
| 2026-05-09 01:08 | 52.13496 | 5.24065 | 36161 ft | 451 kts | 45° |
| 2026-05-09 01:08 | 52.17619 | 5.31758 | 36172 ft | 451 kts | 45° |
| 2026-05-09 01:09 | 52.21741 | 5.39470 | 36160 ft | 451 kts | 45° |
| 2026-05-09 01:09 | 52.25853 | 5.47207 | 36173 ft | 451 kts | 45° |
| 2026-05-09 01:10 | 52.29955 | 5.54951 | 36175 ft | 450 kts | 45° |
| 2026-05-09 01:10 | 52.34020 | 5.62647 | 36172 ft | 450 kts | 46° |
| 2026-05-09 01:11 | 52.38109 | 5.70398 | 36167 ft | 450 kts | 46° |
| 2026-05-09 01:11 | 52.42189 | 5.78165 | 36168 ft | 450 kts | 46° |
| 2026-05-09 01:12 | 52.46270 | 5.85951 | 36165 ft | 450 kts | 46° |
| 2026-05-09 01:12 | 52.50350 | 5.93750 | 36163 ft | 450 kts | 46° |
| 2026-05-09 01:13 | 52.54419 | 6.01569 | 36180 ft | 450 kts | 46° |
| 2026-05-09 01:13 | 52.58474 | 6.09393 | 36187 ft | 449 kts | 46° |
| 2026-05-09 01:14 | 52.62519 | 6.17207 | 36197 ft | 448 kts | 46° |
| 2026-05-09 01:14 | 52.66559 | 6.25037 | 36189 ft | 449 kts | 46° |
| 2026-05-09 01:15 | 52.70590 | 6.32886 | 36185 ft | 449 kts | 46° |
| 2026-05-09 01:15 | 52.74615 | 6.40752 | 36184 ft | 449 kts | 46° |
| 2026-05-09 01:16 | 52.78642 | 6.48623 | 36183 ft | 449 kts | 46° |
| 2026-05-09 01:16 | 52.82661 | 6.56516 | 36199 ft | 449 kts | 46° |
| 2026-05-09 01:17 | 52.88676 | 6.68371 | 36207 ft | 448 kts | 46° |
| 2026-05-09 01:17 | 52.92673 | 6.76292 | 36203 ft | 448 kts | 46° |